createdAt,value
2018-06-03T00:01:08.619Z,8.63
2018-06-03T00:03:36.865Z,9.17
2018-06-03T00:06:05.067Z,9.23
2018-06-03T00:08:33.267Z,9.23
2018-06-03T00:11:01.459Z,8.07
2018-06-03T00:13:29.652Z,8.40
2018-06-03T00:15:57.863Z,12.63
2018-06-03T00:18:26.069Z,10.00
2018-06-03T00:21:05.520Z,10.20
2018-06-03T00:23:33.755Z,8.67
2018-06-03T00:26:01.982Z,8.07
2018-06-03T00:28:30.216Z,8.07
2018-06-03T00:30:58.404Z,8.40
2018-06-03T00:33:26.650Z,11.93
2018-06-03T00:36:06.260Z,9.03
2018-06-03T00:38:34.437Z,7.67
2018-06-03T00:41:02.613Z,8.30
2018-06-03T00:43:30.792Z,6.60
2018-06-03T00:45:58.971Z,7.50
2018-06-03T00:48:27.177Z,8.37
2018-06-03T00:50:55.360Z,10.03
2018-06-03T00:53:23.606Z,8.23
2018-06-03T00:55:51.842Z,9.80
2018-06-03T00:58:20.048Z,7.37
2018-06-03T01:00:48.301Z,7.83
2018-06-03T01:03:16.536Z,9.90
2018-06-03T01:05:44.723Z,8.53
2018-06-03T01:08:12.914Z,7.23
2018-06-03T01:12:10.575Z,8.17
2018-06-03T01:14:38.765Z,7.90
2018-06-03T01:17:06.980Z,7.70
2018-06-03T01:19:35.186Z,7.40
2018-06-03T01:22:03.690Z,6.83
2018-06-03T01:24:31.917Z,7.83
2018-06-03T01:27:00.108Z,7.20
2018-06-03T01:29:28.332Z,7.50
2018-06-03T01:31:56.584Z,6.00
2018-06-03T01:34:24.933Z,6.73
2018-06-03T01:36:53.242Z,7.43
2018-06-03T01:39:21.376Z,6.70
2018-06-03T01:41:49.632Z,8.97
2018-06-03T01:44:17.804Z,8.50
2018-06-03T01:46:46.009Z,7.10
2018-06-03T01:49:14.202Z,6.10
2018-06-03T01:51:42.435Z,7.77
2018-06-03T01:54:11.220Z,6.30
2018-06-03T01:56:39.407Z,12.20
2018-06-03T01:59:07.671Z,6.43
2018-06-03T02:01:35.913Z,6.23
2018-06-03T02:04:04.176Z,10.00
2018-06-03T02:06:32.419Z,6.20
2018-06-03T02:09:00.593Z,6.30
2018-06-03T02:11:29.082Z,6.23
2018-06-03T02:13:57.330Z,6.90
2018-06-03T02:16:25.543Z,7.40
2018-06-03T02:18:53.722Z,8.77
2018-06-03T02:21:21.973Z,12.30
2018-06-03T02:23:50.155Z,6.73
2018-06-03T02:26:18.385Z,8.00
2018-06-03T02:28:46.576Z,8.50
2018-06-03T02:31:14.904Z,5.57
2018-06-03T02:33:43.123Z,6.00
2018-06-03T02:36:11.383Z,6.87
2018-06-03T02:38:39.909Z,7.80
2018-06-03T02:41:08.165Z,6.60
2018-06-03T02:43:36.355Z,6.53
2018-06-03T02:46:04.549Z,7.20
2018-06-03T02:48:32.795Z,6.57
2018-06-03T02:51:00.965Z,7.30
2018-06-03T02:53:29.203Z,6.60
2018-06-03T02:55:57.434Z,5.87
2018-06-03T02:58:25.646Z,6.23
2018-06-03T03:00:53.841Z,7.83
2018-06-03T03:03:22.012Z,5.97
2018-06-03T03:05:50.274Z,6.67
2018-06-03T03:08:18.381Z,9.87
2018-06-03T03:10:46.571Z,6.17
2018-06-03T03:13:14.753Z,5.83
2018-06-03T03:15:42.941Z,9.00
2018-06-03T03:18:11.156Z,6.23
2018-06-03T03:20:39.339Z,6.37
2018-06-03T03:23:07.556Z,9.83
2018-06-03T03:25:35.739Z,5.83
2018-06-03T03:28:03.924Z,5.77
2018-06-03T03:30:32.174Z,5.87
2018-06-03T03:33:00.414Z,5.07
2018-06-03T03:35:28.611Z,5.50
2018-06-03T03:37:56.786Z,5.90
2018-06-03T03:40:24.985Z,10.50
2018-06-03T03:42:53.090Z,8.40
2018-06-03T03:45:21.280Z,8.03
2018-06-03T03:47:49.460Z,6.13
2018-06-03T03:50:17.701Z,8.33
2018-06-03T03:52:45.798Z,4.50
2018-06-03T03:55:13.996Z,5.70
2018-06-03T03:57:42.257Z,4.30
2018-06-03T04:00:10.486Z,5.43
2018-06-03T04:02:38.761Z,7.40
2018-06-03T04:05:06.941Z,8.90
2018-06-03T04:07:35.203Z,6.07
2018-06-03T04:10:03.408Z,4.17
2018-06-03T04:12:31.576Z,5.90
2018-06-03T04:14:59.785Z,5.90
2018-06-03T04:17:28.009Z,4.90
2018-06-03T04:19:56.196Z,7.40
2018-06-03T04:22:24.380Z,4.50
2018-06-03T04:24:52.564Z,5.77
2018-06-03T04:27:20.752Z,5.83
2018-06-03T04:29:49.023Z,3.50
2018-06-03T04:32:17.281Z,5.13
2018-06-03T04:34:45.529Z,3.80
2018-06-03T04:37:13.538Z,5.10
2018-06-03T04:39:41.745Z,5.70
2018-06-03T04:42:09.920Z,5.60
2018-06-03T04:44:38.119Z,4.57
2018-06-03T04:47:06.551Z,5.20
2018-06-03T04:49:34.730Z,4.60
2018-06-03T04:52:02.927Z,6.17
2018-06-03T04:54:31.095Z,4.37
2018-06-03T04:56:59.284Z,8.10
2018-06-03T04:59:27.462Z,5.63
2018-06-03T05:01:55.648Z,6.37
2018-06-03T05:04:23.893Z,6.90
2018-06-03T05:06:52.074Z,4.47
2018-06-03T05:09:20.285Z,4.50
2018-06-03T05:11:48.492Z,6.00
2018-06-03T05:14:16.734Z,6.00
2018-06-03T05:16:44.931Z,6.63
2018-06-03T05:19:13.117Z,4.03
2018-06-03T05:21:41.324Z,6.50
2018-06-03T05:24:09.582Z,7.23
2018-06-03T05:26:37.771Z,8.40
2018-06-03T05:29:05.956Z,8.33
2018-06-03T05:31:34.222Z,6.57
2018-06-03T05:34:02.443Z,5.20
2018-06-03T05:36:30.636Z,5.50
2018-06-03T05:38:58.848Z,7.63
2018-06-03T05:41:27.114Z,9.33
2018-06-03T05:43:55.335Z,11.33
2018-06-03T05:46:23.518Z,9.10
2018-06-03T05:48:51.719Z,7.70
2018-06-03T05:51:19.958Z,8.27
2018-06-03T05:53:48.216Z,6.57
2018-06-03T05:56:16.660Z,7.07
2018-06-03T05:58:44.909Z,6.37
2018-06-03T06:01:13.096Z,7.80
2018-06-03T06:03:41.347Z,6.57
2018-06-03T06:06:09.520Z,8.80
2018-06-03T06:08:37.716Z,6.40
2018-06-03T06:11:05.905Z,9.10
2018-06-03T06:13:34.092Z,10.00
2018-06-03T06:16:02.304Z,6.57
2018-06-03T06:18:30.782Z,5.80
2018-06-03T06:20:59.029Z,7.17
2018-06-03T06:23:27.224Z,7.77
2018-06-03T06:25:55.411Z,7.30
2018-06-03T06:28:23.642Z,6.80
2018-06-03T06:30:51.824Z,5.17
2018-06-03T06:33:20.026Z,15.43
2018-06-03T06:35:48.219Z,7.80
2018-06-03T06:38:16.427Z,7.10
2018-06-03T06:40:44.643Z,13.17
2018-06-03T06:43:12.973Z,5.57
2018-06-03T06:45:41.148Z,6.67
2018-06-03T06:48:09.377Z,6.90
2018-06-03T06:50:37.584Z,8.10
2018-06-03T06:53:05.775Z,7.67
2018-06-03T06:55:33.988Z,12.10
2018-06-03T06:58:02.169Z,8.57
2018-06-03T07:00:30.331Z,7.40
2018-06-03T07:02:58.629Z,7.33
2018-06-03T07:05:26.802Z,7.87
2018-06-03T07:07:55.046Z,9.87
2018-06-03T07:10:23.225Z,7.80
2018-06-03T07:12:51.408Z,8.47
2018-06-03T07:15:19.537Z,8.27
2018-06-03T07:17:47.740Z,8.77
2018-06-03T07:20:15.940Z,7.90
2018-06-03T07:22:44.132Z,8.83
2018-06-03T07:25:12.133Z,8.43
2018-06-03T07:27:40.313Z,9.17
2018-06-03T07:30:08.492Z,8.93
2018-06-03T07:32:36.669Z,8.30
2018-06-03T07:35:04.849Z,9.30
2018-06-03T07:37:33.040Z,12.07
2018-06-03T07:40:01.224Z,9.90
2018-06-03T07:42:29.425Z,8.37
2018-06-03T07:44:57.636Z,8.87
2018-06-03T07:47:25.816Z,11.30
2018-06-03T07:49:54.015Z,8.27
2018-06-03T07:52:22.197Z,9.20
2018-06-03T07:54:50.417Z,10.40
2018-06-03T07:57:18.746Z,9.07
2018-06-03T07:59:46.901Z,10.43
2018-06-03T08:02:15.102Z,8.40
2018-06-03T08:04:43.310Z,8.43
2018-06-03T08:07:11.491Z,7.07
2018-06-03T08:09:39.752Z,8.60
2018-06-03T08:12:07.936Z,7.40
2018-06-03T08:14:36.181Z,5.90
2018-06-03T08:17:04.370Z,7.07
2018-06-03T08:19:32.572Z,10.20
2018-06-03T08:22:00.784Z,6.10
2018-06-03T08:24:28.966Z,15.40
2018-06-03T08:26:57.154Z,6.23
2018-06-03T08:29:25.380Z,7.10
2018-06-03T08:31:53.602Z,5.43
2018-06-03T08:34:21.790Z,5.57
2018-06-03T08:36:49.973Z,7.37
2018-06-03T08:39:18.252Z,13.13
2018-06-03T08:41:46.405Z,4.90
2018-06-03T08:44:14.619Z,4.80
2018-06-03T08:46:42.847Z,5.07
2018-06-03T08:49:11.065Z,13.90
2018-06-03T08:51:39.327Z,5.17
2018-06-03T08:54:07.563Z,5.20
2018-06-03T08:56:35.797Z,4.50
2018-06-03T08:59:03.981Z,4.13
2018-06-03T09:01:32.223Z,4.33
2018-06-03T09:04:00.499Z,5.23
2018-06-03T09:06:28.683Z,4.30
2018-06-03T09:08:56.889Z,4.63
2018-06-03T09:11:25.141Z,3.67
2018-06-03T09:13:53.370Z,4.70
2018-06-03T09:16:21.636Z,4.00
2018-06-03T09:18:49.987Z,6.47
2018-06-03T09:21:18.200Z,5.53
2018-06-03T09:23:46.391Z,4.30
2018-06-03T09:26:14.648Z,5.00
2018-06-03T09:28:42.864Z,4.97
2018-06-03T09:31:11.017Z,4.60
2018-06-03T09:33:39.205Z,3.93
2018-06-03T09:36:07.537Z,4.43
2018-06-03T09:38:35.718Z,3.93
2018-06-03T09:41:03.966Z,4.73
2018-06-03T09:43:32.181Z,3.87
2018-06-03T09:46:00.348Z,4.13
2018-06-03T09:48:28.906Z,5.03
2018-06-03T09:50:57.110Z,3.13
2018-06-03T09:53:25.362Z,3.20
2018-06-03T09:55:53.549Z,3.53
2018-06-03T09:58:21.748Z,5.77
2018-06-03T10:00:50.044Z,5.10
2018-06-03T10:03:18.212Z,3.00
2018-06-03T10:05:46.425Z,3.03
2018-06-03T10:08:14.611Z,2.97
2018-06-03T10:10:42.880Z,2.20
2018-06-03T10:13:11.335Z,6.13
2018-06-03T10:15:39.519Z,2.10
2018-06-03T10:18:07.713Z,1.97
2018-06-03T10:20:35.916Z,3.70
2018-06-03T10:23:04.108Z,3.13
2018-06-03T10:25:32.300Z,1.90
2018-06-03T10:28:00.540Z,3.80
2018-06-03T10:30:28.751Z,1.87
2018-06-03T10:32:56.928Z,3.53
2018-06-03T10:35:25.128Z,1.50
2018-06-03T10:37:53.329Z,1.67
2018-06-03T10:40:21.524Z,1.80
2018-06-03T10:42:49.695Z,1.50
2018-06-03T10:45:17.901Z,1.37
2018-06-03T10:47:46.083Z,1.30
2018-06-03T10:50:14.287Z,1.43
2018-06-03T10:52:42.538Z,1.60
2018-06-03T10:55:10.720Z,2.57
2018-06-03T10:57:38.907Z,1.50
2018-06-03T11:00:06.940Z,10.13
2018-06-03T11:02:35.129Z,3.30
2018-06-03T11:05:03.352Z,1.83
2018-06-03T11:07:31.555Z,1.40
2018-06-03T11:09:59.793Z,1.20
2018-06-03T11:12:27.977Z,1.53
2018-06-03T11:14:56.173Z,1.93
2018-06-03T11:17:24.364Z,1.27
2018-06-03T11:19:52.780Z,2.13
2018-06-03T11:22:21.036Z,1.47
2018-06-03T11:24:49.215Z,1.47
2018-06-03T11:27:17.396Z,1.20
2018-06-03T11:29:45.573Z,1.27
2018-06-03T11:32:13.760Z,5.30
2018-06-03T11:34:41.936Z,5.20
2018-06-03T11:37:10.112Z,2.40
2018-06-03T11:39:38.377Z,1.73
2018-06-03T11:42:06.406Z,1.70
2018-06-03T11:44:34.616Z,1.20
2018-06-03T11:47:02.797Z,2.30
2018-06-03T11:49:30.988Z,1.50
2018-06-03T11:51:59.185Z,1.70
2018-06-03T11:54:27.434Z,1.87
2018-06-03T11:57:01.852Z,1.50
2018-06-03T11:59:46.637Z,1.60
2018-06-03T12:02:16.343Z,5.50
2018-06-03T12:04:44.533Z,1.10
2018-06-03T12:07:12.518Z,1.47
2018-06-03T12:09:40.758Z,1.87
2018-06-03T12:12:09.308Z,1.40
2018-06-03T12:14:37.485Z,1.43
2018-06-03T12:17:05.728Z,1.13
2018-06-03T12:19:33.961Z,1.50
2018-06-03T12:22:02.166Z,2.03
2018-06-03T12:24:30.339Z,1.60
2018-06-03T12:26:58.547Z,1.30
2018-06-03T12:29:26.736Z,1.37
2018-06-03T12:31:54.936Z,1.93
2018-06-03T12:34:23.141Z,1.00
2018-06-03T12:36:51.329Z,1.03
2018-06-03T12:39:19.534Z,1.37
2018-06-03T12:41:47.747Z,1.07
2018-06-03T12:44:16.121Z,2.17
2018-06-03T12:46:44.296Z,1.83
2018-06-03T12:49:12.510Z,2.00
2018-06-03T12:51:40.747Z,1.40
2018-06-03T12:54:08.935Z,1.80
2018-06-03T12:56:37.136Z,1.13
2018-06-03T12:59:05.314Z,4.17
2018-06-03T13:01:33.601Z,1.20
2018-06-03T13:04:01.814Z,1.20
2018-06-03T13:06:30.118Z,1.23
2018-06-03T13:08:58.215Z,1.37
2018-06-03T13:11:26.639Z,2.23
2018-06-03T13:13:54.827Z,1.20
2018-06-03T13:16:23.050Z,1.40
2018-06-03T13:18:51.261Z,1.63
2018-06-03T13:21:19.484Z,6.83
2018-06-03T13:23:47.680Z,1.77
2018-06-03T13:26:15.931Z,4.27
2018-06-03T13:28:44.171Z,1.00
2018-06-03T13:31:12.359Z,1.30
2018-06-03T13:33:40.533Z,1.00
2018-06-03T13:36:08.742Z,1.30
2018-06-03T13:38:37.097Z,1.50
2018-06-03T13:41:05.258Z,1.40
2018-06-03T13:43:33.502Z,1.43
2018-06-03T13:46:01.696Z,2.80
2018-06-03T13:48:29.881Z,3.30
2018-06-03T13:50:57.979Z,1.70
2018-06-03T13:53:26.232Z,1.53
2018-06-03T13:55:54.441Z,1.50
2018-06-03T13:58:22.610Z,1.00
2018-06-03T14:00:51.214Z,3.13
2018-06-03T14:03:19.400Z,2.80
2018-06-03T14:05:47.579Z,0.90
2018-06-03T14:08:15.767Z,1.50
2018-06-03T14:10:43.967Z,1.30
2018-06-03T14:13:12.151Z,2.27
2018-06-03T14:15:40.351Z,1.70
2018-06-03T14:18:08.576Z,3.10
2018-06-03T14:20:36.768Z,2.17
2018-06-03T14:23:05.037Z,2.27
2018-06-03T14:25:33.208Z,1.20
2018-06-03T14:28:01.464Z,1.40
2018-06-03T14:30:29.670Z,1.33
2018-06-03T14:32:57.868Z,3.50
2018-06-03T14:35:26.120Z,1.57
2018-06-03T14:37:54.260Z,2.30
2018-06-03T14:40:22.695Z,1.20
2018-06-03T14:42:50.882Z,1.30
2018-06-03T14:45:19.349Z,1.30
2018-06-03T14:47:47.537Z,3.10
2018-06-03T14:50:15.739Z,1.60
2018-06-03T14:52:43.940Z,3.70
2018-06-03T14:55:12.136Z,2.83
2018-06-03T14:57:40.329Z,2.17
2018-06-03T15:00:08.488Z,2.60
2018-06-03T15:02:36.671Z,1.33
2018-06-03T15:05:04.869Z,1.30
2018-06-03T15:07:33.067Z,2.73
2018-06-03T15:10:01.579Z,1.47
2018-06-03T15:12:29.845Z,2.03
2018-06-03T15:14:58.013Z,4.03
2018-06-03T15:17:26.204Z,0.97
2018-06-03T15:19:54.461Z,1.03
2018-06-03T15:22:22.665Z,1.33
2018-06-03T15:24:50.969Z,1.50
2018-06-03T15:27:19.209Z,1.93
2018-06-03T15:29:47.437Z,1.00
2018-06-03T15:32:15.674Z,2.80
2018-06-03T15:34:43.883Z,1.40
2018-06-03T15:37:12.431Z,1.70
2018-06-03T15:39:40.651Z,1.40
2018-06-03T15:42:08.867Z,1.90
2018-06-03T15:44:36.798Z,1.43
2018-06-03T15:47:05.279Z,1.40
2018-06-03T15:49:33.624Z,1.27
2018-06-03T15:52:01.951Z,2.63
2018-06-03T15:54:30.213Z,2.03
2018-06-03T15:56:58.830Z,1.67
2018-06-03T15:59:27.359Z,1.87
2018-06-03T16:01:56.176Z,1.30
2018-06-03T16:04:24.405Z,1.70
2018-06-03T16:06:52.644Z,2.60
2018-06-03T16:09:21.484Z,9.50
2018-06-03T16:11:49.728Z,1.30
2018-06-03T16:14:18.088Z,1.60
2018-06-03T16:16:46.597Z,1.47
2018-06-03T16:19:15.050Z,1.50
2018-06-03T16:21:43.344Z,1.30
2018-06-03T16:24:11.616Z,2.10
2018-06-03T16:26:39.651Z,2.03
2018-06-03T16:29:07.978Z,3.33
2018-06-03T16:31:36.668Z,2.57
2018-06-03T16:34:05.025Z,1.73
2018-06-03T16:36:33.253Z,1.40
2018-06-03T16:39:01.496Z,1.40
2018-06-03T16:41:29.877Z,1.60
2018-06-03T16:43:58.171Z,1.20
2018-06-03T16:46:26.665Z,3.00
2018-06-03T16:48:54.985Z,2.30
2018-06-03T16:51:23.253Z,1.73
2018-06-03T16:53:51.476Z,2.40
2018-06-03T16:56:19.763Z,2.10
2018-06-03T16:58:47.769Z,1.63
2018-06-03T17:01:16.010Z,2.07
2018-06-03T17:03:44.236Z,2.13
2018-06-03T17:06:12.679Z,1.47
2018-06-03T17:08:40.913Z,1.33
2018-06-03T17:11:09.204Z,2.47
2018-06-03T17:13:37.428Z,1.73
2018-06-03T17:16:05.687Z,1.60
2018-06-03T17:18:34.236Z,2.47
2018-06-03T17:21:02.462Z,1.80
2018-06-03T17:23:30.680Z,1.60
2018-06-03T17:25:58.948Z,1.67
2018-06-03T17:28:27.205Z,4.80
2018-06-03T17:30:55.500Z,2.73
2018-06-03T17:33:23.804Z,2.90
2018-06-03T17:35:52.073Z,1.67
2018-06-03T17:38:20.293Z,1.70
2018-06-03T17:40:48.527Z,4.20
2018-06-03T17:43:16.767Z,1.70
2018-06-03T17:45:44.991Z,4.80
2018-06-03T17:48:13.221Z,3.33
2018-06-03T17:50:41.451Z,2.10
2018-06-03T17:53:09.912Z,1.77
2018-06-03T17:55:38.112Z,1.97
2018-06-03T17:58:06.338Z,8.70
2018-06-03T18:00:34.560Z,2.53
2018-06-03T18:03:02.972Z,2.17
2018-06-03T18:05:31.176Z,1.80
2018-06-03T18:07:59.418Z,4.10
2018-06-03T18:10:27.665Z,3.37
2018-06-03T18:12:55.904Z,3.07
2018-06-03T18:15:24.073Z,2.30
2018-06-03T18:17:52.452Z,1.90
2018-06-03T18:20:20.684Z,1.90
2018-06-03T18:22:49.007Z,3.23
2018-06-03T18:25:17.204Z,2.00
2018-06-03T18:27:45.421Z,3.60
2018-06-03T18:30:13.699Z,2.57
2018-06-03T18:32:41.981Z,2.57
2018-06-03T18:35:10.230Z,1.80
2018-06-03T18:37:38.452Z,2.20
2018-06-03T18:40:06.979Z,2.17
2018-06-03T18:42:35.286Z,2.33
2018-06-03T18:45:03.601Z,2.37
2018-06-03T18:47:31.838Z,2.10
2018-06-03T18:50:00.124Z,2.03
2018-06-03T18:52:28.795Z,1.87
2018-06-03T18:54:57.086Z,5.20
2018-06-03T18:57:25.312Z,1.97
2018-06-03T18:59:53.569Z,2.10
2018-06-03T19:02:21.965Z,2.73
2018-06-03T19:04:50.160Z,3.03
2018-06-03T19:07:18.404Z,2.40
2018-06-03T19:09:46.625Z,2.23
2018-06-03T19:12:14.898Z,2.10
2018-06-03T19:14:43.139Z,2.50
2018-06-03T19:17:11.400Z,3.83
2018-06-03T19:19:39.643Z,2.77
2018-06-03T19:22:07.863Z,3.23
2018-06-03T19:24:36.162Z,2.50
2018-06-03T19:27:04.720Z,2.33
2018-06-03T19:29:32.939Z,2.90
2018-06-03T19:32:01.192Z,3.47
2018-06-03T19:34:29.388Z,1.93
2018-06-03T19:36:57.635Z,2.33
2018-06-03T19:39:25.745Z,3.03
2018-06-03T19:41:53.956Z,2.60
2018-06-03T19:44:22.225Z,3.40
2018-06-03T19:46:50.456Z,2.63
2018-06-03T19:49:18.639Z,2.90
2018-06-03T19:51:46.928Z,3.70
2018-06-03T19:54:15.202Z,2.60
2018-06-03T19:56:43.363Z,2.80
2018-06-03T19:59:12.571Z,4.00
2018-06-03T20:01:40.858Z,2.80
2018-06-03T20:04:09.105Z,2.30
2018-06-03T20:06:37.356Z,2.80
2018-06-03T20:09:07.524Z,6.37
2018-06-03T20:11:35.878Z,2.67
2018-06-03T20:14:04.165Z,2.10
2018-06-03T20:16:33.258Z,3.13
2018-06-03T20:19:01.460Z,5.73
2018-06-03T20:21:29.889Z,3.23
2018-06-03T20:23:58.111Z,3.13
2018-06-03T20:26:26.373Z,5.47
2018-06-03T20:28:54.665Z,3.80
2018-06-03T20:31:22.887Z,4.67
2018-06-03T20:33:51.136Z,3.87
2018-06-03T20:36:19.345Z,4.53
2018-06-03T20:38:47.630Z,3.40
2018-06-03T20:41:16.387Z,2.93
2018-06-03T20:43:44.595Z,3.23
2018-06-03T20:46:12.824Z,4.80
2018-06-03T20:48:41.156Z,3.53
2018-06-03T20:51:09.368Z,3.30
2018-06-03T20:53:37.593Z,3.53
2018-06-03T20:56:06.168Z,2.80
2018-06-03T20:58:34.732Z,2.50
2018-06-03T21:01:03.029Z,3.00
2018-06-03T21:03:31.572Z,3.73
2018-06-03T21:05:59.816Z,3.20
2018-06-03T21:08:28.051Z,3.70
2018-06-03T21:10:56.279Z,4.13
2018-06-03T21:13:24.557Z,3.03
2018-06-03T21:15:52.813Z,3.97
2018-06-03T21:18:20.984Z,5.20
2018-06-03T21:20:49.362Z,4.20
2018-06-03T21:23:17.592Z,4.00
2018-06-03T21:25:45.811Z,3.80
2018-06-03T21:28:14.052Z,3.80
2018-06-03T21:30:42.267Z,3.33
2018-06-03T21:33:10.558Z,4.00
2018-06-03T21:35:38.754Z,3.67
2018-06-03T21:38:07.007Z,2.67
2018-06-03T21:40:35.207Z,4.77
2018-06-03T21:43:03.425Z,3.30
2018-06-03T21:45:32.566Z,6.00
2018-06-03T21:48:00.787Z,5.70
2018-06-03T21:50:29.020Z,4.30
2018-06-03T21:52:57.364Z,3.23
2018-06-03T21:55:25.596Z,4.97
2018-06-03T21:57:53.805Z,5.30
2018-06-03T22:00:22.051Z,6.57
2018-06-03T22:02:50.420Z,4.07
2018-06-03T22:05:18.681Z,5.70
2018-06-03T22:07:46.972Z,5.17
2018-06-03T22:10:15.296Z,4.53
2018-06-03T22:12:43.581Z,4.50
2018-06-03T22:15:11.874Z,6.60
2018-06-03T22:17:40.324Z,7.60
2018-06-03T22:20:08.515Z,5.40
2018-06-03T22:22:36.744Z,3.90
2018-06-03T22:25:04.918Z,5.03
2018-06-03T22:27:33.136Z,6.80
2018-06-03T22:30:01.451Z,5.10
2018-06-03T22:32:29.674Z,6.27
2018-06-03T22:34:57.948Z,16.10
2018-06-03T22:37:26.071Z,7.07
2018-06-03T22:39:54.292Z,4.57
2018-06-03T22:42:22.500Z,5.03
2018-06-03T22:44:50.719Z,7.80
2018-06-03T22:47:19.193Z,6.07
2018-06-03T22:49:47.396Z,4.80
2018-06-03T22:52:15.705Z,6.20
2018-06-03T22:54:43.846Z,5.53
2018-06-03T22:57:47.307Z,4.63
2018-06-03T23:00:21.874Z,8.77
2018-06-03T23:02:55.599Z,6.47
2018-06-03T23:05:24.024Z,5.60
2018-06-03T23:07:52.038Z,5.00
2018-06-03T23:10:20.621Z,9.20
2018-06-03T23:12:48.895Z,5.40
2018-06-03T23:15:17.118Z,5.60
2018-06-03T23:17:45.436Z,5.90
2018-06-03T23:20:13.523Z,6.60
2018-06-03T23:22:41.997Z,9.63
2018-06-03T23:25:10.231Z,7.93
2018-06-03T23:27:38.510Z,5.93
2018-06-03T23:30:06.813Z,8.47
2018-06-03T23:32:35.059Z,6.50
2018-06-03T23:35:03.429Z,7.83
2018-06-03T23:37:31.712Z,6.77
2018-06-03T23:39:59.973Z,7.70
2018-06-03T23:42:28.063Z,6.53
2018-06-03T23:44:56.281Z,8.87
2018-06-03T23:47:24.575Z,8.00
2018-06-03T23:49:52.772Z,6.57
2018-06-03T23:52:20.991Z,9.83
2018-06-03T23:54:49.443Z,9.80
2018-06-03T23:57:17.720Z,7.53
2018-06-03T23:59:45.946Z,9.90
